sensor_id;sensor_type;location;lat;lon;timestamp;P1;durP1;ratioP1;P2;durP2;ratioP2
71095;SDS011;58753;49.440;11.126;2022-12-18T00:01:47;29.97;;;11.03;;
71095;SDS011;58753;49.440;11.126;2022-12-18T00:04:23;25.73;;;12.20;;
71095;SDS011;58753;49.440;11.126;2022-12-18T00:06:49;26.48;;;11.10;;
71095;SDS011;58753;49.440;11.126;2022-12-18T00:09:14;24.47;;;10.27;;
71095;SDS011;58753;49.440;11.126;2022-12-18T00:11:40;28.20;;;11.82;;
71095;SDS011;58753;49.440;11.126;2022-12-18T00:14:06;28.70;;;12.40;;
71095;SDS011;58753;49.440;11.126;2022-12-18T00:16:31;24.43;;;12.07;;
71095;SDS011;58753;49.440;11.126;2022-12-18T00:18:58;42.65;;;11.82;;
71095;SDS011;58753;49.440;11.126;2022-12-18T00:21:25;24.63;;;10.88;;
71095;SDS011;58753;49.440;11.126;2022-12-18T00:23:51;24.65;;;10.32;;
71095;SDS011;58753;49.440;11.126;2022-12-18T00:26:18;18.40;;;9.37;;
71095;SDS011;58753;49.440;11.126;2022-12-18T00:28:48;28.77;;;11.18;;
71095;SDS011;58753;49.440;11.126;2022-12-18T00:31:15;24.45;;;11.27;;
71095;SDS011;58753;49.440;11.126;2022-12-18T00:33:42;30.33;;;11.90;;
71095;SDS011;58753;49.440;11.126;2022-12-18T00:36:15;25.77;;;10.23;;
71095;SDS011;58753;49.440;11.126;2022-12-18T00:38:42;32.53;;;11.43;;
71095;SDS011;58753;49.440;11.126;2022-12-18T00:41:08;26.15;;;11.07;;
71095;SDS011;58753;49.440;11.126;2022-12-18T00:43:35;31.92;;;11.18;;
71095;SDS011;58753;49.440;11.126;2022-12-18T00:46:01;31.40;;;11.77;;
71095;SDS011;58753;49.440;11.126;2022-12-18T00:48:27;24.67;;;11.52;;
71095;SDS011;58753;49.440;11.126;2022-12-18T00:50:52;25.97;;;10.83;;
71095;SDS011;58753;49.440;11.126;2022-12-18T00:53:18;30.37;;;12.07;;
71095;SDS011;58753;49.440;11.126;2022-12-18T00:55:44;22.80;;;11.13;;
71095;SDS011;58753;49.440;11.126;2022-12-18T00:58:10;25.83;;;11.10;;
71095;SDS011;58753;49.440;11.126;2022-12-18T01:00:36;30.87;;;10.23;;
71095;SDS011;58753;49.440;11.126;2022-12-18T01:03:03;25.65;;;10.55;;
71095;SDS011;58753;49.440;11.126;2022-12-18T01:05:29;21.17;;;9.60;;
71095;SDS011;58753;49.440;11.126;2022-12-18T01:07:55;25.30;;;9.17;;
71095;SDS011;58753;49.440;11.126;2022-12-18T01:10:21;29.67;;;11.45;;
71095;SDS011;58753;49.440;11.126;2022-12-18T01:12:47;25.75;;;10.65;;
71095;SDS011;58753;49.440;11.126;2022-12-18T01:15:13;25.97;;;10.37;;
71095;SDS011;58753;49.440;11.126;2022-12-18T01:17:39;26.17;;;10.23;;
71095;SDS011;58753;49.440;11.126;2022-12-18T01:20:05;26.37;;;10.20;;
71095;SDS011;58753;49.440;11.126;2022-12-18T01:22:35;24.17;;;9.60;;
71095;SDS011;58753;49.440;11.126;2022-12-18T01:25:01;22.88;;;8.45;;
71095;SDS011;58753;49.440;11.126;2022-12-18T01:27:26;24.53;;;9.50;;
71095;SDS011;58753;49.440;11.126;2022-12-18T01:29:51;27.65;;;10.30;;
71095;SDS011;58753;49.440;11.126;2022-12-18T01:32:17;22.30;;;8.40;;
71095;SDS011;58753;49.440;11.126;2022-12-18T01:34:42;23.70;;;9.83;;
71095;SDS011;58753;49.440;11.126;2022-12-18T01:37:08;22.57;;;11.13;;
71095;SDS011;58753;49.440;11.126;2022-12-18T01:39:33;25.50;;;10.40;;
71095;SDS011;58753;49.440;11.126;2022-12-18T01:41:59;28.13;;;10.25;;
71095;SDS011;58753;49.440;11.126;2022-12-18T01:47:28;25.17;;;9.52;;
71095;SDS011;58753;49.440;11.126;2022-12-18T01:50:16;22.98;;;9.68;;
71095;SDS011;58753;49.440;11.126;2022-12-18T01:52:42;23.02;;;10.15;;
71095;SDS011;58753;49.440;11.126;2022-12-18T01:55:11;27.60;;;9.52;;
71095;SDS011;58753;49.440;11.126;2022-12-18T01:57:38;25.93;;;9.37;;
71095;SDS011;58753;49.440;11.126;2022-12-18T02:00:07;22.98;;;9.70;;
71095;SDS011;58753;49.440;11.126;2022-12-18T02:02:37;24.88;;;8.25;;
71095;SDS011;58753;49.440;11.126;2022-12-18T02:05:04;19.88;;;9.27;;
71095;SDS011;58753;49.440;11.126;2022-12-18T02:07:54;25.17;;;10.33;;
71095;SDS011;58753;49.440;11.126;2022-12-18T02:10:41;18.08;;;8.02;;
71095;SDS011;58753;49.440;11.126;2022-12-18T02:13:40;22.67;;;8.70;;
71095;SDS011;58753;49.440;11.126;2022-12-18T02:19:21;28.73;;;9.55;;
71095;SDS011;58753;49.440;11.126;2022-12-18T02:24:41;21.35;;;9.13;;
71095;SDS011;58753;49.440;11.126;2022-12-18T02:27:09;24.10;;;8.60;;
71095;SDS011;58753;49.440;11.126;2022-12-18T02:29:40;22.35;;;9.93;;
71095;SDS011;58753;49.440;11.126;2022-12-18T02:32:15;29.98;;;9.57;;
71095;SDS011;58753;49.440;11.126;2022-12-18T02:34:44;19.10;;;9.10;;
71095;SDS011;58753;49.440;11.126;2022-12-18T02:37:12;22.13;;;7.47;;
71095;SDS011;58753;49.440;11.126;2022-12-18T02:39:41;20.05;;;8.40;;
71095;SDS011;58753;49.440;11.126;2022-12-18T02:42:09;22.77;;;9.30;;
71095;SDS011;58753;49.440;11.126;2022-12-18T02:44:43;19.60;;;9.27;;
71095;SDS011;58753;49.440;11.126;2022-12-18T02:47:10;22.23;;;10.03;;
71095;SDS011;58753;49.440;11.126;2022-12-18T03:00:33;19.67;;;7.83;;
71095;SDS011;58753;49.440;11.126;2022-12-18T03:03:05;23.17;;;7.35;;
71095;SDS011;58753;49.440;11.126;2022-12-18T03:05:40;17.23;;;5.65;;
71095;SDS011;58753;49.440;11.126;2022-12-18T03:08:17;22.17;;;7.45;;
71095;SDS011;58753;49.440;11.126;2022-12-18T03:11:07;19.05;;;8.10;;
71095;SDS011;58753;49.440;11.126;2022-12-18T03:13:35;14.57;;;7.13;;
71095;SDS011;58753;49.440;11.126;2022-12-18T03:16:05;20.85;;;8.18;;
71095;SDS011;58753;49.440;11.126;2022-12-18T03:18:34;18.80;;;7.20;;
71095;SDS011;58753;49.440;11.126;2022-12-18T03:21:02;18.45;;;5.45;;
71095;SDS011;58753;49.440;11.126;2022-12-18T03:23:32;17.10;;;7.75;;
71095;SDS011;58753;49.440;11.126;2022-12-18T03:26:05;19.43;;;7.10;;
71095;SDS011;58753;49.440;11.126;2022-12-18T03:28:35;21.20;;;8.85;;
71095;SDS011;58753;49.440;11.126;2022-12-18T03:31:05;14.80;;;6.68;;
71095;SDS011;58753;49.440;11.126;2022-12-18T03:33:38;18.45;;;7.82;;
71095;SDS011;58753;49.440;11.126;2022-12-18T03:36:11;23.08;;;9.02;;
71095;SDS011;58753;49.440;11.126;2022-12-18T03:38:36;16.77;;;7.00;;
71095;SDS011;58753;49.440;11.126;2022-12-18T03:41:16;15.60;;;7.33;;
71095;SDS011;58753;49.440;11.126;2022-12-18T03:43:52;17.48;;;8.65;;
71095;SDS011;58753;49.440;11.126;2022-12-18T03:46:26;27.75;;;9.43;;
71095;SDS011;58753;49.440;11.126;2022-12-18T03:49:19;27.35;;;9.45;;
71095;SDS011;58753;49.440;11.126;2022-12-18T03:51:55;25.93;;;9.13;;
71095;SDS011;58753;49.440;11.126;2022-12-18T03:54:26;25.30;;;8.85;;
71095;SDS011;58753;49.440;11.126;2022-12-18T03:56:58;25.42;;;8.68;;
71095;SDS011;58753;49.440;11.126;2022-12-18T03:59:27;23.77;;;8.43;;
71095;SDS011;58753;49.440;11.126;2022-12-18T04:01:55;20.27;;;8.25;;
71095;SDS011;58753;49.440;11.126;2022-12-18T04:04:23;19.30;;;8.20;;
71095;SDS011;58753;49.440;11.126;2022-12-18T04:06:50;21.27;;;7.75;;
71095;SDS011;58753;49.440;11.126;2022-12-18T04:09:17;21.63;;;8.15;;
71095;SDS011;58753;49.440;11.126;2022-12-18T04:11:44;21.60;;;7.68;;
71095;SDS011;58753;49.440;11.126;2022-12-18T04:14:11;23.30;;;8.40;;
71095;SDS011;58753;49.440;11.126;2022-12-18T04:16:36;20.50;;;7.40;;
71095;SDS011;58753;49.440;11.126;2022-12-18T04:19:02;24.90;;;8.47;;
71095;SDS011;58753;49.440;11.126;2022-12-18T04:21:28;19.55;;;6.85;;
71095;SDS011;58753;49.440;11.126;2022-12-18T04:23:53;25.97;;;8.20;;
71095;SDS011;58753;49.440;11.126;2022-12-18T04:26:19;21.77;;;8.00;;
71095;SDS011;58753;49.440;11.126;2022-12-18T04:28:45;21.55;;;8.75;;
71095;SDS011;58753;49.440;11.126;2022-12-18T04:31:10;25.70;;;8.97;;
71095;SDS011;58753;49.440;11.126;2022-12-18T04:33:36;26.40;;;9.07;;
71095;SDS011;58753;49.440;11.126;2022-12-18T04:36:01;31.73;;;8.43;;
71095;SDS011;58753;49.440;11.126;2022-12-18T04:38:27;29.30;;;9.97;;
71095;SDS011;58753;49.440;11.126;2022-12-18T04:40:53;28.40;;;9.77;;
71095;SDS011;58753;49.440;11.126;2022-12-18T04:43:18;22.90;;;8.33;;
71095;SDS011;58753;49.440;11.126;2022-12-18T04:45:43;29.67;;;9.93;;
71095;SDS011;58753;49.440;11.126;2022-12-18T04:48:09;25.03;;;8.87;;
71095;SDS011;58753;49.440;11.126;2022-12-18T04:50:34;28.80;;;9.43;;
71095;SDS011;58753;49.440;11.126;2022-12-18T04:52:59;37.37;;;10.07;;
71095;SDS011;58753;49.440;11.126;2022-12-18T04:55:25;30.43;;;9.40;;
71095;SDS011;58753;49.440;11.126;2022-12-18T04:57:51;30.70;;;8.37;;
71095;SDS011;58753;49.440;11.126;2022-12-18T05:00:16;22.77;;;9.07;;
71095;SDS011;58753;49.440;11.126;2022-12-18T05:02:42;20.30;;;8.47;;
71095;SDS011;58753;49.440;11.126;2022-12-18T05:05:07;24.93;;;9.63;;
71095;SDS011;58753;49.440;11.126;2022-12-18T05:07:33;24.10;;;8.60;;
71095;SDS011;58753;49.440;11.126;2022-12-18T05:09:58;26.23;;;7.97;;
71095;SDS011;58753;49.440;11.126;2022-12-18T05:12:24;28.90;;;9.23;;
71095;SDS011;58753;49.440;11.126;2022-12-18T05:14:49;21.63;;;8.35;;
71095;SDS011;58753;49.440;11.126;2022-12-18T05:17:14;34.77;;;9.17;;
71095;SDS011;58753;49.440;11.126;2022-12-18T05:19:40;31.10;;;10.40;;
71095;SDS011;58753;49.440;11.126;2022-12-18T05:22:05;28.80;;;8.83;;
71095;SDS011;58753;49.440;11.126;2022-12-18T05:24:32;24.23;;;8.43;;
71095;SDS011;58753;49.440;11.126;2022-12-18T05:26:57;23.70;;;9.23;;
71095;SDS011;58753;49.440;11.126;2022-12-18T05:29:22;25.47;;;8.67;;
71095;SDS011;58753;49.440;11.126;2022-12-18T05:31:48;27.42;;;8.65;;
71095;SDS011;58753;49.440;11.126;2022-12-18T05:34:13;27.67;;;10.33;;
71095;SDS011;58753;49.440;11.126;2022-12-18T05:36:39;27.23;;;9.50;;
71095;SDS011;58753;49.440;11.126;2022-12-18T05:39:04;23.37;;;9.00;;
71095;SDS011;58753;49.440;11.126;2022-12-18T05:41:30;29.55;;;8.82;;
71095;SDS011;58753;49.440;11.126;2022-12-18T05:43:55;32.97;;;9.93;;
71095;SDS011;58753;49.440;11.126;2022-12-18T05:46:20;26.67;;;9.83;;
71095;SDS011;58753;49.440;11.126;2022-12-18T05:48:46;28.63;;;10.00;;
71095;SDS011;58753;49.440;11.126;2022-12-18T05:51:13;34.90;;;9.68;;
71095;SDS011;58753;49.440;11.126;2022-12-18T05:53:40;26.38;;;10.38;;
71095;SDS011;58753;49.440;11.126;2022-12-18T05:56:10;31.73;;;10.27;;
71095;SDS011;58753;49.440;11.126;2022-12-18T05:58:38;26.95;;;9.77;;
71095;SDS011;58753;49.440;11.126;2022-12-18T06:01:11;29.23;;;9.95;;
71095;SDS011;58753;49.440;11.126;2022-12-18T06:03:42;33.63;;;11.05;;
71095;SDS011;58753;49.440;11.126;2022-12-18T06:06:22;27.30;;;9.93;;
71095;SDS011;58753;49.440;11.126;2022-12-18T06:08:49;32.00;;;11.00;;
71095;SDS011;58753;49.440;11.126;2022-12-18T06:11:17;34.08;;;10.32;;
71095;SDS011;58753;49.440;11.126;2022-12-18T06:13:44;32.53;;;10.68;;
71095;SDS011;58753;49.440;11.126;2022-12-18T06:16:10;34.07;;;10.73;;
71095;SDS011;58753;49.440;11.126;2022-12-18T06:18:35;35.00;;;10.60;;
71095;SDS011;58753;49.440;11.126;2022-12-18T06:21:02;27.30;;;9.05;;
71095;SDS011;58753;49.440;11.126;2022-12-18T06:23:28;33.25;;;10.13;;
71095;SDS011;58753;49.440;11.126;2022-12-18T06:25:53;36.20;;;11.43;;
71095;SDS011;58753;49.440;11.126;2022-12-18T06:28:19;25.57;;;9.40;;
71095;SDS011;58753;49.440;11.126;2022-12-18T06:30:45;32.17;;;9.95;;
71095;SDS011;58753;49.440;11.126;2022-12-18T06:33:12;23.00;;;8.67;;
71095;SDS011;58753;49.440;11.126;2022-12-18T06:35:37;25.55;;;9.70;;
71095;SDS011;58753;49.440;11.126;2022-12-18T06:38:02;34.20;;;10.83;;
71095;SDS011;58753;49.440;11.126;2022-12-18T06:40:28;32.23;;;10.37;;
71095;SDS011;58753;49.440;11.126;2022-12-18T06:42:54;32.55;;;9.75;;
71095;SDS011;58753;49.440;11.126;2022-12-18T06:45:19;31.90;;;9.77;;
71095;SDS011;58753;49.440;11.126;2022-12-18T06:47:45;31.83;;;10.50;;
71095;SDS011;58753;49.440;11.126;2022-12-18T06:50:10;26.00;;;10.65;;
71095;SDS011;58753;49.440;11.126;2022-12-18T06:52:36;32.17;;;10.43;;
71095;SDS011;58753;49.440;11.126;2022-12-18T06:55:02;28.98;;;10.35;;
71095;SDS011;58753;49.440;11.126;2022-12-18T06:57:29;28.25;;;10.10;;
71095;SDS011;58753;49.440;11.126;2022-12-18T06:59:54;27.13;;;11.33;;
71095;SDS011;58753;49.440;11.126;2022-12-18T07:02:19;33.15;;;10.90;;
71095;SDS011;58753;49.440;11.126;2022-12-18T07:04:45;33.83;;;9.77;;
71095;SDS011;58753;49.440;11.126;2022-12-18T07:07:10;31.27;;;9.53;;
71095;SDS011;58753;49.440;11.126;2022-12-18T07:09:36;30.43;;;10.20;;
71095;SDS011;58753;49.440;11.126;2022-12-18T07:12:01;31.05;;;10.15;;
71095;SDS011;58753;49.440;11.126;2022-12-18T07:14:26;31.87;;;10.47;;
71095;SDS011;58753;49.440;11.126;2022-12-18T07:16:52;28.60;;;10.37;;
71095;SDS011;58753;49.440;11.126;2022-12-18T07:19:17;35.57;;;9.77;;
71095;SDS011;58753;49.440;11.126;2022-12-18T07:21:42;33.00;;;11.10;;
71095;SDS011;58753;49.440;11.126;2022-12-18T07:24:08;32.13;;;10.77;;
71095;SDS011;58753;49.440;11.126;2022-12-18T07:26:33;30.53;;;9.70;;
71095;SDS011;58753;49.440;11.126;2022-12-18T07:28:58;33.65;;;11.07;;
71095;SDS011;58753;49.440;11.126;2022-12-18T07:31:24;34.83;;;10.80;;
71095;SDS011;58753;49.440;11.126;2022-12-18T07:33:50;34.67;;;11.07;;
71095;SDS011;58753;49.440;11.126;2022-12-18T07:36:16;40.17;;;11.53;;
71095;SDS011;58753;49.440;11.126;2022-12-18T07:38:42;35.35;;;12.10;;
71095;SDS011;58753;49.440;11.126;2022-12-18T07:41:12;29.40;;;11.27;;
71095;SDS011;58753;49.440;11.126;2022-12-18T07:43:38;34.22;;;11.07;;
71095;SDS011;58753;49.440;11.126;2022-12-18T07:46:04;35.45;;;10.93;;
71095;SDS011;58753;49.440;11.126;2022-12-18T07:48:30;30.33;;;10.50;;
71095;SDS011;58753;49.440;11.126;2022-12-18T07:50:59;36.73;;;11.60;;
71095;SDS011;58753;49.440;11.126;2022-12-18T07:53:25;30.00;;;10.45;;
71095;SDS011;58753;49.440;11.126;2022-12-18T07:55:55;32.27;;;10.57;;
71095;SDS011;58753;49.440;11.126;2022-12-18T07:58:24;26.90;;;9.27;;
71095;SDS011;58753;49.440;11.126;2022-12-18T08:00:50;33.33;;;10.75;;
71095;SDS011;58753;49.440;11.126;2022-12-18T08:03:15;31.70;;;10.50;;
71095;SDS011;58753;49.440;11.126;2022-12-18T08:05:41;45.45;;;12.00;;
71095;SDS011;58753;49.440;11.126;2022-12-18T08:08:06;35.83;;;11.10;;
71095;SDS011;58753;49.440;11.126;2022-12-18T08:10:31;33.77;;;10.60;;
71095;SDS011;58753;49.440;11.126;2022-12-18T08:12:57;38.97;;;11.57;;
71095;SDS011;58753;49.440;11.126;2022-12-18T08:15:22;30.13;;;10.13;;
71095;SDS011;58753;49.440;11.126;2022-12-18T08:17:48;32.07;;;10.33;;
71095;SDS011;58753;49.440;11.126;2022-12-18T08:20:13;34.70;;;9.77;;
71095;SDS011;58753;49.440;11.126;2022-12-18T08:22:43;26.43;;;10.47;;
71095;SDS011;58753;49.440;11.126;2022-12-18T08:25:08;37.88;;;12.63;;
71095;SDS011;58753;49.440;11.126;2022-12-18T08:27:34;32.73;;;11.90;;
71095;SDS011;58753;49.440;11.126;2022-12-18T08:29:59;37.90;;;11.63;;
71095;SDS011;58753;49.440;11.126;2022-12-18T08:32:26;34.33;;;11.20;;
71095;SDS011;58753;49.440;11.126;2022-12-18T08:34:52;35.00;;;11.52;;
71095;SDS011;58753;49.440;11.126;2022-12-18T08:37:18;32.73;;;11.00;;
71095;SDS011;58753;49.440;11.126;2022-12-18T08:39:43;32.63;;;12.47;;
71095;SDS011;58753;49.440;11.126;2022-12-18T08:42:09;29.50;;;10.60;;
71095;SDS011;58753;49.440;11.126;2022-12-18T08:44:53;34.85;;;10.95;;
71095;SDS011;58753;49.440;11.126;2022-12-18T08:47:18;35.50;;;10.80;;
71095;SDS011;58753;49.440;11.126;2022-12-18T08:49:44;32.20;;;11.85;;
71095;SDS011;58753;49.440;11.126;2022-12-18T08:52:09;31.93;;;10.73;;
71095;SDS011;58753;49.440;11.126;2022-12-18T08:54:34;33.17;;;10.93;;
71095;SDS011;58753;49.440;11.126;2022-12-18T08:57:00;34.13;;;11.67;;
71095;SDS011;58753;49.440;11.126;2022-12-18T08:59:25;30.30;;;12.13;;
71095;SDS011;58753;49.440;11.126;2022-12-18T09:01:54;32.92;;;11.77;;
71095;SDS011;58753;49.440;11.126;2022-12-18T09:04:20;35.10;;;10.88;;
71095;SDS011;58753;49.440;11.126;2022-12-18T09:06:45;33.73;;;11.57;;
71095;SDS011;58753;49.440;11.126;2022-12-18T09:09:11;39.77;;;12.77;;
71095;SDS011;58753;49.440;11.126;2022-12-18T09:11:36;28.23;;;9.95;;
71095;SDS011;58753;49.440;11.126;2022-12-18T09:14:02;41.50;;;13.47;;
71095;SDS011;58753;49.440;11.126;2022-12-18T09:16:28;37.22;;;12.30;;
71095;SDS011;58753;49.440;11.126;2022-12-18T09:18:54;27.90;;;10.80;;
71095;SDS011;58753;49.440;11.126;2022-12-18T09:21:24;37.42;;;12.70;;
71095;SDS011;58753;49.440;11.126;2022-12-18T09:23:51;32.45;;;12.43;;
71095;SDS011;58753;49.440;11.126;2022-12-18T09:26:17;35.13;;;12.73;;
71095;SDS011;58753;49.440;11.126;2022-12-18T09:28:42;23.00;;;9.07;;
71095;SDS011;58753;49.440;11.126;2022-12-18T09:31:08;31.23;;;10.85;;
71095;SDS011;58753;49.440;11.126;2022-12-18T09:33:39;25.97;;;10.03;;
71095;SDS011;58753;49.440;11.126;2022-12-18T09:36:05;34.17;;;10.73;;
71095;SDS011;58753;49.440;11.126;2022-12-18T09:38:32;31.23;;;10.23;;
71095;SDS011;58753;49.440;11.126;2022-12-18T09:41:06;28.70;;;10.80;;
71095;SDS011;58753;49.440;11.126;2022-12-18T09:43:49;27.60;;;10.57;;
71095;SDS011;58753;49.440;11.126;2022-12-18T09:46:38;25.95;;;10.18;;
71095;SDS011;58753;49.440;11.126;2022-12-18T09:49:11;27.80;;;8.32;;
71095;SDS011;58753;49.440;11.126;2022-12-18T09:51:41;28.42;;;10.25;;
71095;SDS011;58753;49.440;11.126;2022-12-18T09:54:18;28.25;;;9.57;;
71095;SDS011;58753;49.440;11.126;2022-12-18T09:56:47;24.33;;;8.53;;
71095;SDS011;58753;49.440;11.126;2022-12-18T09:59:26;27.70;;;10.30;;
71095;SDS011;58753;49.440;11.126;2022-12-18T10:01:56;19.58;;;7.80;;
71095;SDS011;58753;49.440;11.126;2022-12-18T10:04:23;24.40;;;8.73;;
71095;SDS011;58753;49.440;11.126;2022-12-18T10:06:58;31.67;;;10.73;;
71095;SDS011;58753;49.440;11.126;2022-12-18T10:09:49;25.73;;;9.98;;
71095;SDS011;58753;49.440;11.126;2022-12-18T10:15:01;22.17;;;8.53;;
71095;SDS011;58753;49.440;11.126;2022-12-18T10:20:09;24.95;;;8.73;;
71095;SDS011;58753;49.440;11.126;2022-12-18T10:22:44;26.20;;;9.55;;
71095;SDS011;58753;49.440;11.126;2022-12-18T10:27:52;21.80;;;9.60;;
71095;SDS011;58753;49.440;11.126;2022-12-18T10:30:21;20.95;;;8.18;;
71095;SDS011;58753;49.440;11.126;2022-12-18T10:32:48;25.95;;;8.77;;
71095;SDS011;58753;49.440;11.126;2022-12-18T10:35:17;21.45;;;8.88;;
71095;SDS011;58753;49.440;11.126;2022-12-18T10:40:29;27.00;;;9.45;;
71095;SDS011;58753;49.440;11.126;2022-12-18T10:43:05;27.48;;;10.48;;
71095;SDS011;58753;49.440;11.126;2022-12-18T10:45:36;27.88;;;10.80;;
71095;SDS011;58753;49.440;11.126;2022-12-18T10:48:01;28.03;;;10.17;;
71095;SDS011;58753;49.440;11.126;2022-12-18T10:50:29;16.55;;;7.25;;
71095;SDS011;58753;49.440;11.126;2022-12-18T10:52:58;23.00;;;9.38;;
71095;SDS011;58753;49.440;11.126;2022-12-18T10:55:35;27.53;;;10.47;;
71095;SDS011;58753;49.440;11.126;2022-12-18T10:58:18;25.25;;;9.95;;
71095;SDS011;58753;49.440;11.126;2022-12-18T11:01:17;21.40;;;10.35;;
71095;SDS011;58753;49.440;11.126;2022-12-18T11:06:20;30.98;;;10.20;;
71095;SDS011;58753;49.440;11.126;2022-12-18T11:11:57;28.17;;;11.20;;
71095;SDS011;58753;49.440;11.126;2022-12-18T11:14:42;27.30;;;11.75;;
71095;SDS011;58753;49.440;11.126;2022-12-18T11:17:20;27.60;;;10.95;;
71095;SDS011;58753;49.440;11.126;2022-12-18T11:19:53;31.42;;;11.73;;
71095;SDS011;58753;49.440;11.126;2022-12-18T11:22:22;29.50;;;11.97;;
71095;SDS011;58753;49.440;11.126;2022-12-18T11:24:58;27.02;;;12.13;;
71095;SDS011;58753;49.440;11.126;2022-12-18T11:28:03;27.77;;;11.23;;
71095;SDS011;58753;49.440;11.126;2022-12-18T11:30:34;26.50;;;11.27;;
71095;SDS011;58753;49.440;11.126;2022-12-18T11:33:20;28.50;;;11.48;;
71095;SDS011;58753;49.440;11.126;2022-12-18T11:36:05;30.67;;;11.83;;
71095;SDS011;58753;49.440;11.126;2022-12-18T11:38:39;32.00;;;11.68;;
71095;SDS011;58753;49.440;11.126;2022-12-18T11:41:21;27.95;;;12.05;;
71095;SDS011;58753;49.440;11.126;2022-12-18T11:44:08;28.00;;;11.52;;
71095;SDS011;58753;49.440;11.126;2022-12-18T11:46:40;24.35;;;10.45;;
71095;SDS011;58753;49.440;11.126;2022-12-18T11:49:15;26.03;;;11.57;;
71095;SDS011;58753;49.440;11.126;2022-12-18T11:51:50;21.80;;;9.80;;
71095;SDS011;58753;49.440;11.126;2022-12-18T11:54:28;23.75;;;10.35;;
71095;SDS011;58753;49.440;11.126;2022-12-18T12:03:06;29.20;;;11.10;;
71095;SDS011;58753;49.440;11.126;2022-12-18T12:08:37;26.57;;;10.13;;
71095;SDS011;58753;49.440;11.126;2022-12-18T12:14:29;29.50;;;11.40;;
71095;SDS011;58753;49.440;11.126;2022-12-18T12:17:40;27.45;;;10.30;;
71095;SDS011;58753;49.440;11.126;2022-12-18T12:20:20;31.52;;;9.80;;
71095;SDS011;58753;49.440;11.126;2022-12-18T12:22:56;32.03;;;11.00;;
71095;SDS011;58753;49.440;11.126;2022-12-18T12:25:34;32.60;;;12.10;;
71095;SDS011;58753;49.440;11.126;2022-12-18T12:28:14;28.23;;;11.45;;
71095;SDS011;58753;49.440;11.126;2022-12-18T12:30:49;32.90;;;12.25;;
71095;SDS011;58753;49.440;11.126;2022-12-18T12:33:43;33.97;;;12.18;;
71095;SDS011;58753;49.440;11.126;2022-12-18T12:38:51;30.98;;;12.73;;
71095;SDS011;58753;49.440;11.126;2022-12-18T12:41:23;31.75;;;12.85;;
71095;SDS011;58753;49.440;11.126;2022-12-18T12:44:15;21.40;;;9.82;;
71095;SDS011;58753;49.440;11.126;2022-12-18T12:46:52;30.33;;;11.73;;
71095;SDS011;58753;49.440;11.126;2022-12-18T12:49:22;26.30;;;11.90;;
71095;SDS011;58753;49.440;11.126;2022-12-18T12:51:58;28.48;;;12.18;;
71095;SDS011;58753;49.440;11.126;2022-12-18T12:54:42;28.73;;;12.38;;
71095;SDS011;58753;49.440;11.126;2022-12-18T12:57:20;27.70;;;11.07;;
71095;SDS011;58753;49.440;11.126;2022-12-18T13:02:42;27.57;;;10.57;;
71095;SDS011;58753;49.440;11.126;2022-12-18T13:07:47;24.77;;;10.45;;
71095;SDS011;58753;49.440;11.126;2022-12-18T13:13:06;22.75;;;9.73;;
71095;SDS011;58753;49.440;11.126;2022-12-18T13:15:42;27.03;;;10.60;;
71095;SDS011;58753;49.440;11.126;2022-12-18T13:25:56;26.90;;;10.18;;
71095;SDS011;58753;49.440;11.126;2022-12-18T13:30:57;23.98;;;9.27;;
71095;SDS011;58753;49.440;11.126;2022-12-18T13:38:41;27.38;;;10.07;;
71095;SDS011;58753;49.440;11.126;2022-12-18T13:43:43;27.30;;;9.43;;
71095;SDS011;58753;49.440;11.126;2022-12-18T13:46:20;24.45;;;9.60;;
71095;SDS011;58753;49.440;11.126;2022-12-18T13:49:05;26.30;;;10.70;;
71095;SDS011;58753;49.440;11.126;2022-12-18T13:51:39;26.88;;;9.52;;
71095;SDS011;58753;49.440;11.126;2022-12-18T13:54:17;23.45;;;10.23;;
71095;SDS011;58753;49.440;11.126;2022-12-18T13:56:55;24.90;;;9.93;;
71095;SDS011;58753;49.440;11.126;2022-12-18T13:59:24;24.75;;;10.65;;
71095;SDS011;58753;49.440;11.126;2022-12-18T14:02:04;24.57;;;9.33;;
71095;SDS011;58753;49.440;11.126;2022-12-18T14:04:37;32.53;;;10.68;;
71095;SDS011;58753;49.440;11.126;2022-12-18T14:07:07;22.83;;;7.85;;
71095;SDS011;58753;49.440;11.126;2022-12-18T14:09:40;38.65;;;9.93;;
71095;SDS011;58753;49.440;11.126;2022-12-18T14:12:14;19.70;;;8.50;;
71095;SDS011;58753;49.440;11.126;2022-12-18T14:15:01;25.60;;;11.27;;
71095;SDS011;58753;49.440;11.126;2022-12-18T14:17:27;18.80;;;7.53;;
71095;SDS011;58753;49.440;11.126;2022-12-18T14:19:52;25.07;;;9.70;;
71095;SDS011;58753;49.440;11.126;2022-12-18T14:22:19;24.20;;;9.70;;
71095;SDS011;58753;49.440;11.126;2022-12-18T14:24:46;25.83;;;10.90;;
71095;SDS011;58753;49.440;11.126;2022-12-18T14:27:19;21.95;;;9.75;;
71095;SDS011;58753;49.440;11.126;2022-12-18T14:29:47;23.73;;;9.95;;
71095;SDS011;58753;49.440;11.126;2022-12-18T14:32:19;27.00;;;11.00;;
71095;SDS011;58753;49.440;11.126;2022-12-18T14:34:49;27.52;;;10.40;;
71095;SDS011;58753;49.440;11.126;2022-12-18T14:37:18;27.42;;;10.02;;
71095;SDS011;58753;49.440;11.126;2022-12-18T14:39:56;31.27;;;13.63;;
71095;SDS011;58753;49.440;11.126;2022-12-18T14:42:27;25.20;;;10.40;;
71095;SDS011;58753;49.440;11.126;2022-12-18T14:47:56;26.48;;;10.88;;
71095;SDS011;58753;49.440;11.126;2022-12-18T14:50:22;28.40;;;10.93;;
71095;SDS011;58753;49.440;11.126;2022-12-18T14:52:47;31.83;;;12.10;;
71095;SDS011;58753;49.440;11.126;2022-12-18T14:55:17;27.42;;;10.90;;
71095;SDS011;58753;49.440;11.126;2022-12-18T14:57:43;27.90;;;9.87;;
71095;SDS011;58753;49.440;11.126;2022-12-18T15:00:17;24.60;;;10.85;;
71095;SDS011;58753;49.440;11.126;2022-12-18T15:02:48;21.85;;;8.68;;
71095;SDS011;58753;49.440;11.126;2022-12-18T15:05:19;23.95;;;11.13;;
71095;SDS011;58753;49.440;11.126;2022-12-18T15:07:56;27.60;;;10.18;;
71095;SDS011;58753;49.440;11.126;2022-12-18T15:10:24;33.23;;;10.87;;
71095;SDS011;58753;49.440;11.126;2022-12-18T15:20:52;24.77;;;10.32;;
71095;SDS011;58753;49.440;11.126;2022-12-18T15:23:25;27.97;;;11.23;;
71095;SDS011;58753;49.440;11.126;2022-12-18T15:25:58;31.13;;;11.68;;
71095;SDS011;58753;49.440;11.126;2022-12-18T15:30:59;28.98;;;11.88;;
71095;SDS011;58753;49.440;11.126;2022-12-18T15:33:26;29.88;;;12.65;;
71095;SDS011;58753;49.440;11.126;2022-12-18T15:35:58;26.53;;;11.07;;
71095;SDS011;58753;49.440;11.126;2022-12-18T15:38:25;28.17;;;12.10;;
71095;SDS011;58753;49.440;11.126;2022-12-18T15:40:50;36.20;;;13.68;;
71095;SDS011;58753;49.440;11.126;2022-12-18T15:43:16;32.58;;;13.00;;
71095;SDS011;58753;49.440;11.126;2022-12-18T15:46:11;34.27;;;11.83;;
71095;SDS011;58753;49.440;11.126;2022-12-18T15:48:45;30.23;;;11.80;;
71095;SDS011;58753;49.440;11.126;2022-12-18T15:51:19;31.38;;;12.45;;
71095;SDS011;58753;49.440;11.126;2022-12-18T15:53:47;29.95;;;11.48;;
71095;SDS011;58753;49.440;11.126;2022-12-18T15:56:15;30.08;;;13.70;;
71095;SDS011;58753;49.440;11.126;2022-12-18T15:58:59;28.40;;;12.53;;
71095;SDS011;58753;49.440;11.126;2022-12-18T16:01:27;30.55;;;12.52;;